Time,TemperatureF,DewpointF,PressureIn,WindDirection,WindDirectionDegrees,WindSpeedMPH,WindSpeedGustMPH,Humidity,HourlyPrecipIn,Conditions,Clouds,dailyrainin,SoftwareType,DateUTC
2013-03-12 00:03:00,29.7,27.0,29.82,West,275,9.0,17.0,89,0.00,,,0.00,weatherlink.com 1.10,2013-03-12 05:03:00,
2013-03-12 00:18:00,29.5,27.0,29.82,WSW,248,9.0,14.0,89,0.00,,,0.00,weatherlink.com 1.10,2013-03-12 05:18:00,
2013-03-12 00:33:00,29.5,27.0,29.83,West,276,7.0,17.0,89,0.00,,,0.00,weatherlink.com 1.10,2013-03-12 05:33:00,
2013-03-12 00:48:00,29.4,27.0,29.83,West,269,5.0,15.0,89,0.00,,,0.00,weatherlink.com 1.10,2013-03-12 05:48:00,
2013-03-12 01:03:00,29.0,27.0,29.83,WSW,256,9.0,13.0,91,0.00,,,0.00,weatherlink.com 1.10,2013-03-12 06:03:00,
2013-03-12 01:18:00,28.7,27.0,29.83,NNW,337,5.0,11.0,92,0.00,,,0.00,weatherlink.com 1.10,2013-03-12 06:18:00,
2013-03-12 01:33:00,28.4,27.0,29.83,West,278,7.0,13.0,93,0.00,,,0.00,weatherlink.com 1.10,2013-03-12 06:33:00,
2013-03-12 01:48:00,28.0,27.0,29.84,SW,235,9.0,14.0,95,0.00,,,0.00,weatherlink.com 1.10,2013-03-12 06:48:00,
2013-03-12 02:03:00,27.7,27.0,29.85,West,278,5.0,11.0,96,0.00,,,0.00,weatherlink.com 1.10,2013-03-12 07:03:00,
2013-03-12 02:18:00,27.6,27.0,29.85,West,259,6.0,10.0,96,0.00,,,0.00,weatherlink.com 1.10,2013-03-12 07:18:00,
2013-03-12 02:33:00,27.6,26.0,29.86,West,280,8.0,13.0,95,0.00,,,0.00,weatherlink.com 1.10,2013-03-12 07:33:00,
2013-03-12 02:48:00,27.6,26.0,29.86,West,260,5.0,9.0,94,0.00,,,0.00,weatherlink.com 1.10,2013-03-12 07:48:00,
2013-03-12 03:03:00,27.5,26.0,29.87,WSW,255,8.0,10.0,93,0.00,,,0.00,weatherlink.com 1.10,2013-03-12 08:03:00,
2013-03-12 03:18:00,27.4,25.0,29.86,West,259,8.0,11.0,91,0.00,,,0.00,weatherlink.com 1.10,2013-03-12 08:18:00,
2013-03-12 03:33:00,27.3,25.0,29.87,WSW,250,11.0,13.0,91,0.00,,,0.00,weatherlink.com 1.10,2013-03-12 08:33:00,
2013-03-12 03:48:00,27.1,25.0,29.87,West,273,7.0,12.0,90,0.00,,,0.00,weatherlink.com 1.10,2013-03-12 08:48:00,
2013-03-12 04:03:00,26.8,24.0,29.86,West,259,5.0,9.0,89,0.00,,,0.00,weatherlink.com 1.10,2013-03-12 09:03:00,
2013-03-12 04:18:00,26.4,23.0,29.86,West,266,3.0,11.0,87,0.00,,,0.00,weatherlink.com 1.10,2013-03-12 09:18:00,
2013-03-12 04:33:00,26.1,23.0,29.87,WSW,246,3.0,9.0,87,0.00,,,0.00,weatherlink.com 1.10,2013-03-12 09:33:00,
2013-03-12 04:49:00,25.7,22.0,29.87,West,279,5.0,12.0,85,0.00,,,0.00,weatherlink.com 1.10,2013-03-12 09:49:00,
2013-03-12 05:04:00,25.3,21.0,29.87,WNW,284,3.0,12.0,85,0.00,,,0.00,weatherlink.com 1.10,2013-03-12 10:04:00,
2013-03-12 05:34:00,24.9,21.0,29.88,WSW,239,9.0,13.0,84,0.00,,,0.00,weatherlink.com 1.10,2013-03-12 10:34:00,
2013-03-12 05:49:00,24.7,20.0,29.88,WNW,291,8.0,15.0,83,0.00,,,0.00,weatherlink.com 1.10,2013-03-12 10:49:00,
2013-03-12 06:04:00,24.5,20.0,29.88,WSW,258,4.0,11.0,84,0.00,,,0.00,weatherlink.com 1.10,2013-03-12 11:04:00,
2013-03-12 06:19:00,24.6,20.0,29.88,WNW,284,5.0,11.0,83,0.00,,,0.00,weatherlink.com 1.10,2013-03-12 11:19:00,
2013-03-12 06:34:00,24.5,20.0,29.89,WSW,257,8.0,8.0,83,0.00,,,0.00,weatherlink.com 1.10,2013-03-12 11:34:00,
2013-03-12 06:49:00,24.5,20.0,29.89,West,276,3.0,8.0,84,0.00,,,0.00,weatherlink.com 1.10,2013-03-12 11:49:00,
2013-03-12 07:04:00,24.9,21.0,29.90,WSW,255,4.0,8.0,84,0.00,,,0.00,weatherlink.com 1.10,2013-03-12 12:04:00,
2013-03-12 07:19:00,24.6,21.0,29.89,SW,231,4.0,6.0,86,0.00,,,0.00,weatherlink.com 1.10,2013-03-12 12:19:00,
2013-03-12 07:34:00,24.7,21.0,29.89,WSW,256,5.0,5.0,86,0.00,,,0.00,weatherlink.com 1.10,2013-03-12 12:34:00,
2013-03-12 07:49:00,25.0,21.0,29.89,SW,221,6.0,8.0,86,0.00,,,0.00,weatherlink.com 1.10,2013-03-12 12:49:00,
2013-03-12 08:04:00,25.2,22.0,29.90,SW,228,6.0,8.0,87,0.00,,,0.00,weatherlink.com 1.10,2013-03-12 13:04:00,
2013-03-12 08:19:00,25.6,23.0,29.90,WSW,257,5.0,8.0,88,0.00,,,0.00,weatherlink.com 1.10,2013-03-12 13:19:00,
2013-03-12 08:33:00,25.9,23.0,29.90,WSW,243,2.0,8.0,88,0.00,,,0.00,weatherlink.com 1.10,2013-03-12 13:33:00,
2013-03-12 08:49:00,26.5,24.0,29.89,WNW,284,2.0,6.0,89,0.00,,,0.00,weatherlink.com 1.10,2013-03-12 13:49:00,
2013-03-12 09:04:00,27.4,24.0,29.90,WSW,256,3.0,5.0,87,0.00,,,0.00,weatherlink.com 1.10,2013-03-12 14:04:00,
2013-03-12 09:19:00,28.0,25.0,29.90,SSW,205,3.0,6.0,87,0.00,,,0.00,weatherlink.com 1.10,2013-03-12 14:19:00,
2013-03-12 09:34:00,28.7,25.0,29.91,West,259,5.0,6.0,87,0.00,,,0.00,weatherlink.com 1.10,2013-03-12 14:34:00,
2013-03-12 09:49:00,29.4,26.0,29.91,West,265,7.0,10.0,86,0.00,,,0.00,weatherlink.com 1.10,2013-03-12 14:49:00,
2013-03-12 10:04:00,30.1,26.0,29.91,West,262,10.0,13.0,84,0.00,,,0.00,weatherlink.com 1.10,2013-03-12 15:04:00,
2013-03-12 10:18:00,30.3,26.0,29.91,SW,219,7.0,14.0,85,0.00,,,0.00,weatherlink.com 1.10,2013-03-12 15:18:00,
2013-03-12 10:34:00,30.4,27.0,29.91,SW,232,2.0,13.0,87,0.00,,,0.00,weatherlink.com 1.10,2013-03-12 15:34:00,
2013-03-12 10:48:00,30.6,27.0,29.91,WSW,238,8.0,12.0,87,0.00,,,0.00,weatherlink.com 1.10,2013-03-12 15:48:00,
2013-03-12 11:04:00,30.7,28.0,29.91,West,262,10.0,11.0,89,0.00,,,0.00,weatherlink.com 1.10,2013-03-12 16:04:00,
2013-03-12 11:18:00,31.1,28.0,29.91,West,269,7.0,12.0,88,0.00,,,0.00,weatherlink.com 1.10,2013-03-12 16:18:00,
2013-03-12 11:34:00,32.3,29.0,29.91,West,262,5.0,13.0,86,0.00,,,0.00,weatherlink.com 1.10,2013-03-12 16:34:00,
2013-03-12 11:49:00,33.5,29.0,29.91,West,263,17.0,17.0,84,0.00,,,0.00,weatherlink.com 1.10,2013-03-12 16:49:00,
2013-03-12 12:04:00,33.4,29.0,29.91,SW,233,10.0,18.0,83,0.00,,,0.00,weatherlink.com 1.10,2013-03-12 17:04:00,
2013-03-12 12:19:00,33.4,29.0,29.91,West,264,8.0,17.0,83,0.00,,,0.00,weatherlink.com 1.10,2013-03-12 17:19:00,
2013-03-12 12:34:00,33.4,29.0,29.91,SW,236,8.0,14.0,83,0.00,,,0.00,weatherlink.com 1.10,2013-03-12 17:34:00,
2013-03-12 12:49:00,33.4,29.0,29.91,SW,224,7.0,14.0,84,0.00,,,0.00,weatherlink.com 1.10,2013-03-12 17:49:00,
2013-03-12 13:04:00,33.3,29.0,29.91,West,262,8.0,17.0,85,0.00,,,0.00,weatherlink.com 1.10,2013-03-12 18:04:00,
2013-03-12 13:19:00,33.3,29.0,29.91,West,277,13.0,21.0,84,0.00,,,0.00,weatherlink.com 1.10,2013-03-12 18:19:00,
2013-03-12 13:34:00,33.1,30.0,29.91,West,262,16.0,20.0,87,0.00,,,0.00,weatherlink.com 1.10,2013-03-12 18:34:00,
2013-03-12 13:49:00,33.1,30.0,29.91,WSW,257,9.0,15.0,88,0.00,,,0.00,weatherlink.com 1.10,2013-03-12 18:49:00,
2013-03-12 14:04:00,33.0,30.0,29.90,West,267,7.0,15.0,87,0.00,,,0.00,weatherlink.com 1.10,2013-03-12 19:04:00,
2013-03-12 14:19:00,33.2,29.0,29.90,WSW,257,11.0,21.0,85,0.00,,,0.00,weatherlink.com 1.10,2013-03-12 19:19:00,
2013-03-12 14:34:00,33.3,29.0,29.90,West,269,13.0,16.0,84,0.00,,,0.00,weatherlink.com 1.10,2013-03-12 19:34:00,
2013-03-12 14:49:00,32.6,30.0,29.90,West,274,7.0,17.0,89,0.00,,,0.00,weatherlink.com 1.10,2013-03-12 19:49:00,
2013-03-12 15:04:00,32.0,30.0,29.90,WSW,248,3.0,11.0,93,0.00,,,0.00,weatherlink.com 1.10,2013-03-12 20:04:00,
2013-03-12 15:19:00,30.7,29.0,29.91,WSW,257,9.0,19.0,94,0.00,,,0.00,weatherlink.com 1.10,2013-03-12 20:19:00,
2013-03-12 15:50:00,33.0,27.0,29.91,West,260,11.0,14.0,78,0.00,,,0.00,weatherlink.com 1.10,2013-03-12 20:50:00,
2013-03-12 16:04:00,32.3,25.0,29.91,WNW,294,7.0,20.0,75,0.00,,,0.00,weatherlink.com 1.10,2013-03-12 21:04:00,
2013-03-12 16:19:00,31.5,24.0,29.93,WNW,292,14.0,25.0,75,0.00,,,0.00,weatherlink.com 1.10,2013-03-12 21:19:00,
2013-03-12 16:34:00,31.2,24.0,29.93,WNW,289,7.0,19.0,74,0.00,,,0.00,weatherlink.com 1.10,2013-03-12 21:34:00,
2013-03-12 16:49:00,30.7,24.0,29.94,WNW,299,7.0,15.0,77,0.00,,,0.00,weatherlink.com 1.10,2013-03-12 21:49:00,
2013-03-12 17:05:00,30.0,24.0,29.95,WNW,283,16.0,16.0,78,0.00,,,0.00,weatherlink.com 1.10,2013-03-12 22:05:00,
2013-03-12 17:20:00,29.9,24.0,29.95,WNW,298,10.0,15.0,77,0.00,,,0.00,weatherlink.com 1.10,2013-03-12 22:20:00,
2013-03-12 17:35:00,29.5,24.0,29.96,NW,307,5.0,13.0,79,0.00,,,0.00,weatherlink.com 1.10,2013-03-12 22:35:00,
2013-03-12 17:50:00,29.4,23.0,29.96,NW,323,8.0,15.0,78,0.00,,,0.00,weatherlink.com 1.10,2013-03-12 22:50:00,
2013-03-12 18:05:00,28.7,23.0,29.97,WSW,240,12.0,16.0,80,0.00,,,0.00,weatherlink.com 1.10,2013-03-12 23:05:00,
2013-03-12 18:20:00,28.2,23.0,29.98,NW,324,14.0,18.0,81,0.00,,,0.00,weatherlink.com 1.10,2013-03-12 23:20:00,
2013-03-12 18:35:00,28.1,22.0,29.98,NNW,343,11.0,15.0,79,0.00,,,0.00,weatherlink.com 1.10,2013-03-12 23:35:00,
2013-03-12 18:50:00,27.9,22.0,29.99,West,260,17.0,19.0,78,0.00,,,0.00,weatherlink.com 1.10,2013-03-12 23:50:00,
2013-03-12 19:05:00,27.1,23.0,30.00,West,273,8.0,17.0,83,0.00,,,0.00,weatherlink.com 1.10,2013-03-13 00:05:00,
2013-03-12 19:20:00,26.9,22.0,30.00,West,278,3.0,19.0,80,0.00,,,0.00,weatherlink.com 1.10,2013-03-13 00:20:00,
2013-03-12 19:35:00,26.9,22.0,30.01,WSW,249,10.0,16.0,80,0.00,,,0.00,weatherlink.com 1.10,2013-03-13 00:35:00,
2013-03-12 19:50:00,26.8,21.0,30.01,West,264,5.0,21.0,78,0.00,,,0.00,weatherlink.com 1.10,2013-03-13 00:50:00,
2013-03-12 20:05:00,26.6,21.0,30.02,WSW,255,11.0,18.0,79,0.00,,,0.00,weatherlink.com 1.10,2013-03-13 01:05:00,
2013-03-12 20:20:00,26.3,21.0,30.02,WNW,291,4.0,13.0,81,0.00,,,0.00,weatherlink.com 1.10,2013-03-13 01:20:00,
2013-03-12 20:35:00,26.4,21.0,30.03,WNW,297,5.0,15.0,79,0.00,,,0.00,weatherlink.com 1.10,2013-03-13 01:35:00,
2013-03-12 20:50:00,26.3,21.0,30.04,WNW,302,3.0,12.0,79,0.00,,,0.00,weatherlink.com 1.10,2013-03-13 01:50:00,
2013-03-12 21:05:00,26.4,21.0,30.04,WNW,285,3.0,16.0,79,0.00,,,0.00,weatherlink.com 1.10,2013-03-13 02:05:00,
2013-03-12 21:20:00,26.4,21.0,30.05,WNW,299,5.0,16.0,79,0.00,,,0.00,weatherlink.com 1.10,2013-03-13 02:20:00,
2013-03-12 21:35:00,26.4,21.0,30.05,West,269,7.0,15.0,79,0.00,,,0.00,weatherlink.com 1.10,2013-03-13 02:35:00,
2013-03-12 21:50:00,26.2,21.0,30.05,West,275,5.0,15.0,79,0.00,,,0.00,weatherlink.com 1.10,2013-03-13 02:50:00,
2013-03-12 22:05:00,26.0,21.0,30.06,WSW,257,5.0,12.0,80,0.00,,,0.00,weatherlink.com 1.10,2013-03-13 03:05:00,
2013-03-12 22:20:00,25.9,21.0,30.06,WNW,284,6.0,10.0,81,0.00,,,0.00,weatherlink.com 1.10,2013-03-13 03:20:00,
2013-03-12 22:35:00,25.8,21.0,30.07,North,356,5.0,15.0,81,0.00,,,0.00,weatherlink.com 1.10,2013-03-13 03:35:00,
2013-03-12 22:50:00,25.8,21.0,30.07,NW,311,4.0,12.0,81,0.00,,,0.00,weatherlink.com 1.10,2013-03-13 03:50:00,
2013-03-12 23:05:00,25.7,21.0,30.07,WNW,287,4.0,11.0,82,0.00,,,0.00,weatherlink.com 1.10,2013-03-13 04:05:00,
2013-03-12 23:20:00,25.4,21.0,30.07,WNW,297,5.0,13.0,82,0.00,,,0.00,weatherlink.com 1.10,2013-03-13 04:20:00,
2013-03-12 23:34:00,25.3,21.0,30.08,WSW,256,6.0,13.0,82,0.00,,,0.00,weatherlink.com 1.10,2013-03-13 04:34:00,
2013-03-12 23:49:00,25.1,21.0,30.08,West,278,6.0,13.0,83,0.00,,,0.00,weatherlink.com 1.10,2013-03-13 04:49:00,